sensor_id;sensor_type;location;lat;lon;timestamp;temperature;humidity
74101;DHT22;62462;52.530;21.682;2022-12-18T00:01:17;-2.50;78.20
74101;DHT22;62462;52.530;21.682;2022-12-18T00:03:43;-2.50;78.30
74101;DHT22;62462;52.530;21.682;2022-12-18T00:06:09;-2.50;77.90
74101;DHT22;62462;52.530;21.682;2022-12-18T00:08:35;-2.60;77.50
74101;DHT22;62462;52.530;21.682;2022-12-18T00:11:05;-2.60;77.50
74101;DHT22;62462;52.530;21.682;2022-12-18T00:13:31;-2.70;77.30
74101;DHT22;62462;52.530;21.682;2022-12-18T00:16:04;-2.70;77.30
74101;DHT22;62462;52.530;21.682;2022-12-18T00:18:31;-2.80;77.30
74101;DHT22;62462;52.530;21.682;2022-12-18T00:21:01;-2.80;77.60
74101;DHT22;62462;52.530;21.682;2022-12-18T00:23:27;-2.90;77.60
74101;DHT22;62462;52.530;21.682;2022-12-18T00:25:53;-2.90;77.60
74101;DHT22;62462;52.530;21.682;2022-12-18T00:28:19;-2.90;77.70
74101;DHT22;62462;52.530;21.682;2022-12-18T00:30:45;-2.90;77.80
74101;DHT22;62462;52.530;21.682;2022-12-18T00:33:10;-2.90;78.00
74101;DHT22;62462;52.530;21.682;2022-12-18T00:35:36;-2.90;78.00
74101;DHT22;62462;52.530;21.682;2022-12-18T00:38:02;-2.90;77.80
74101;DHT22;62462;52.530;21.682;2022-12-18T00:40:27;-2.90;77.80
74101;DHT22;62462;52.530;21.682;2022-12-18T00:42:53;-2.80;77.80
74101;DHT22;62462;52.530;21.682;2022-12-18T00:45:24;-2.80;77.80
74101;DHT22;62462;52.530;21.682;2022-12-18T00:47:50;-2.80;77.90
74101;DHT22;62462;52.530;21.682;2022-12-18T00:50:16;-2.80;77.90
74101;DHT22;62462;52.530;21.682;2022-12-18T00:52:42;-2.80;77.90
74101;DHT22;62462;52.530;21.682;2022-12-18T00:55:08;-2.70;77.60
74101;DHT22;62462;52.530;21.682;2022-12-18T00:57:35;-2.70;77.60
74101;DHT22;62462;52.530;21.682;2022-12-18T01:00:01;-2.60;77.50
74101;DHT22;62462;52.530;21.682;2022-12-18T01:02:27;-2.60;77.40
74101;DHT22;62462;52.530;21.682;2022-12-18T01:04:52;-2.60;76.90
74101;DHT22;62462;52.530;21.682;2022-12-18T01:07:18;-2.60;77.20
74101;DHT22;62462;52.530;21.682;2022-12-18T01:09:44;-2.60;77.20
74101;DHT22;62462;52.530;21.682;2022-12-18T01:12:10;-2.60;76.50
74101;DHT22;62462;52.530;21.682;2022-12-18T01:14:36;-2.70;76.90
74101;DHT22;62462;52.530;21.682;2022-12-18T01:17:03;-2.70;77.00
74101;DHT22;62462;52.530;21.682;2022-12-18T01:19:29;-2.80;76.80
74101;DHT22;62462;52.530;21.682;2022-12-18T01:21:55;-2.80;77.90
74101;DHT22;62462;52.530;21.682;2022-12-18T01:24:21;-2.90;77.00
74101;DHT22;62462;52.530;21.682;2022-12-18T01:26:47;-2.90;77.30
74101;DHT22;62462;52.530;21.682;2022-12-18T01:29:13;-3.00;77.20
74101;DHT22;62462;52.530;21.682;2022-12-18T01:31:38;-3.00;78.60
74101;DHT22;62462;52.530;21.682;2022-12-18T01:34:05;-3.00;77.90
74101;DHT22;62462;52.530;21.682;2022-12-18T01:36:33;-2.90;78.00
74101;DHT22;62462;52.530;21.682;2022-12-18T01:39:01;-2.90;77.50
74101;DHT22;62462;52.530;21.682;2022-12-18T01:41:29;-2.90;77.50
74101;DHT22;62462;52.530;21.682;2022-12-18T01:47:52;-2.90;77.50
74101;DHT22;62462;52.530;21.682;2022-12-18T01:50:28;-2.80;77.70
74101;DHT22;62462;52.530;21.682;2022-12-18T01:52:59;-2.80;77.70
74101;DHT22;62462;52.530;21.682;2022-12-18T01:55:30;-2.90;77.60
74101;DHT22;62462;52.530;21.682;2022-12-18T01:57:58;-2.80;77.60
74101;DHT22;62462;52.530;21.682;2022-12-18T02:00:26;-2.90;77.70
74101;DHT22;62462;52.530;21.682;2022-12-18T02:02:52;-2.90;78.00
74101;DHT22;62462;52.530;21.682;2022-12-18T02:05:29;-2.80;78.00
74101;DHT22;62462;52.530;21.682;2022-12-18T02:14:17;-2.70;77.70
74101;DHT22;62462;52.530;21.682;2022-12-18T02:16:47;-2.70;77.70
74101;DHT22;62462;52.530;21.682;2022-12-18T02:22:21;-2.70;77.50
74101;DHT22;62462;52.530;21.682;2022-12-18T02:27:21;-2.70;77.40
74101;DHT22;62462;52.530;21.682;2022-12-18T02:29:50;-2.80;77.50
74101;DHT22;62462;52.530;21.682;2022-12-18T02:32:28;-2.70;77.60
74101;DHT22;62462;52.530;21.682;2022-12-18T02:34:56;-2.70;77.30
74101;DHT22;62462;52.530;21.682;2022-12-18T02:37:24;-2.70;77.40
74101;DHT22;62462;52.530;21.682;2022-12-18T02:39:53;-2.80;77.60
74101;DHT22;62462;52.530;21.682;2022-12-18T02:42:21;-2.80;77.60
74101;DHT22;62462;52.530;21.682;2022-12-18T02:44:50;-2.80;77.60
74101;DHT22;62462;52.530;21.682;2022-12-18T02:47:22;-2.80;77.60
74101;DHT22;62462;52.530;21.682;2022-12-18T02:58:03;-2.90;77.80
74101;DHT22;62462;52.530;21.682;2022-12-18T03:00:39;-3.00;78.00
74101;DHT22;62462;52.530;21.682;2022-12-18T03:03:11;-3.00;78.20
74101;DHT22;62462;52.530;21.682;2022-12-18T03:05:43;-2.90;78.10
74101;DHT22;62462;52.530;21.682;2022-12-18T03:08:14;-3.00;78.20
74101;DHT22;62462;52.530;21.682;2022-12-18T03:10:45;-2.90;78.30
74101;DHT22;62462;52.530;21.682;2022-12-18T03:13:18;-2.80;78.30
74101;DHT22;62462;52.530;21.682;2022-12-18T03:15:49;-2.70;77.90
74101;DHT22;62462;52.530;21.682;2022-12-18T03:18:23;-2.70;77.90
74101;DHT22;62462;52.530;21.682;2022-12-18T03:20:51;-2.70;77.80
74101;DHT22;62462;52.530;21.682;2022-12-18T03:23:23;-2.70;77.60
74101;DHT22;62462;52.530;21.682;2022-12-18T03:25:52;-2.80;77.50
74101;DHT22;62462;52.530;21.682;2022-12-18T03:28:21;-2.90;77.70
74101;DHT22;62462;52.530;21.682;2022-12-18T03:30:50;-2.90;78.00
74101;DHT22;62462;52.530;21.682;2022-12-18T03:35:49;-2.90;78.30
74101;DHT22;62462;52.530;21.682;2022-12-18T03:38:15;-3.00;78.20
74101;DHT22;62462;52.530;21.682;2022-12-18T03:41:01;-3.00;78.40
74101;DHT22;62462;52.530;21.682;2022-12-18T03:46:07;-2.90;78.70
74101;DHT22;62462;52.530;21.682;2022-12-18T03:48:41;-2.90;78.20
74101;DHT22;62462;52.530;21.682;2022-12-18T03:51:17;-3.00;78.20
74101;DHT22;62462;52.530;21.682;2022-12-18T03:54:00;-3.00;78.50
74101;DHT22;62462;52.530;21.682;2022-12-18T03:56:30;-3.00;78.50
74101;DHT22;62462;52.530;21.682;2022-12-18T03:58:59;-2.90;78.50
74101;DHT22;62462;52.530;21.682;2022-12-18T04:01:34;-2.90;78.10
74101;DHT22;62462;52.530;21.682;2022-12-18T04:04:01;-3.00;78.30
74101;DHT22;62462;52.530;21.682;2022-12-18T04:06:29;-3.00;78.50
74101;DHT22;62462;52.530;21.682;2022-12-18T04:08:57;-3.00;78.20
74101;DHT22;62462;52.530;21.682;2022-12-18T04:11:23;-3.00;78.30
74101;DHT22;62462;52.530;21.682;2022-12-18T04:13:48;-3.00;78.40
74101;DHT22;62462;52.530;21.682;2022-12-18T04:16:14;-3.00;78.20
74101;DHT22;62462;52.530;21.682;2022-12-18T04:18:40;-3.00;79.20
74101;DHT22;62462;52.530;21.682;2022-12-18T04:21:06;-3.10;78.30
74101;DHT22;62462;52.530;21.682;2022-12-18T04:23:31;-3.00;78.30
74101;DHT22;62462;52.530;21.682;2022-12-18T04:25:57;-3.00;78.00
74101;DHT22;62462;52.530;21.682;2022-12-18T04:28:23;-3.00;77.90
74101;DHT22;62462;52.530;21.682;2022-12-18T04:30:49;-2.90;77.60
74101;DHT22;62462;52.530;21.682;2022-12-18T04:33:14;-2.90;77.40
74101;DHT22;62462;52.530;21.682;2022-12-18T04:35:40;-3.00;77.00
74101;DHT22;62462;52.530;21.682;2022-12-18T04:38:07;-3.00;76.90
74101;DHT22;62462;52.530;21.682;2022-12-18T04:40:37;-3.00;77.30
74101;DHT22;62462;52.530;21.682;2022-12-18T04:43:03;-2.90;77.40
74101;DHT22;62462;52.530;21.682;2022-12-18T04:45:30;-2.90;77.40
74101;DHT22;62462;52.530;21.682;2022-12-18T04:47:57;-2.80;77.50
74101;DHT22;62462;52.530;21.682;2022-12-18T04:50:23;-2.80;77.20
74101;DHT22;62462;52.530;21.682;2022-12-18T04:52:49;-2.70;76.90
74101;DHT22;62462;52.530;21.682;2022-12-18T04:55:15;-2.70;76.90
74101;DHT22;62462;52.530;21.682;2022-12-18T04:57:41;-2.70;76.60
74101;DHT22;62462;52.530;21.682;2022-12-18T05:00:07;-2.70;76.50
74101;DHT22;62462;52.530;21.682;2022-12-18T05:02:33;-2.80;76.50
74101;DHT22;62462;52.530;21.682;2022-12-18T05:04:59;-2.50;76.70
74101;DHT22;62462;52.530;21.682;2022-12-18T05:07:24;-2.80;76.60
74101;DHT22;62462;52.530;21.682;2022-12-18T05:09:50;-2.80;76.80
74101;DHT22;62462;52.530;21.682;2022-12-18T05:12:16;-2.80;76.80
74101;DHT22;62462;52.530;21.682;2022-12-18T05:14:42;-2.80;76.90
74101;DHT22;62462;52.530;21.682;2022-12-18T05:17:07;-2.80;76.80
74101;DHT22;62462;52.530;21.682;2022-12-18T05:19:33;-2.80;76.60
74101;DHT22;62462;52.530;21.682;2022-12-18T05:21:59;-2.80;76.50
74101;DHT22;62462;52.530;21.682;2022-12-18T05:24:25;-2.80;76.70
74101;DHT22;62462;52.530;21.682;2022-12-18T05:26:50;-2.80;76.60
74101;DHT22;62462;52.530;21.682;2022-12-18T05:29:16;-2.70;76.50
74101;DHT22;62462;52.530;21.682;2022-12-18T05:31:42;-2.70;76.10
74101;DHT22;62462;52.530;21.682;2022-12-18T05:34:07;-2.80;75.80
74101;DHT22;62462;52.530;21.682;2022-12-18T05:36:33;-2.80;75.70
74101;DHT22;62462;52.530;21.682;2022-12-18T05:38:59;-2.90;75.60
74101;DHT22;62462;52.530;21.682;2022-12-18T05:41:26;-2.90;75.80
74101;DHT22;62462;52.530;21.682;2022-12-18T05:43:51;-2.90;75.80
74101;DHT22;62462;52.530;21.682;2022-12-18T05:46:18;-3.00;75.60
74101;DHT22;62462;52.530;21.682;2022-12-18T05:48:44;-3.00;75.50
74101;DHT22;62462;52.530;21.682;2022-12-18T05:51:14;-3.10;75.70
74101;DHT22;62462;52.530;21.682;2022-12-18T05:53:41;-3.10;76.10
74101;DHT22;62462;52.530;21.682;2022-12-18T05:56:09;-3.00;76.20
74101;DHT22;62462;52.530;21.682;2022-12-18T05:58:36;-3.00;76.20
74101;DHT22;62462;52.530;21.682;2022-12-18T06:01:11;-3.00;75.90
74101;DHT22;62462;52.530;21.682;2022-12-18T06:03:37;-3.00;75.90
74101;DHT22;62462;52.530;21.682;2022-12-18T06:06:03;-3.00;76.10
74101;DHT22;62462;52.530;21.682;2022-12-18T06:08:29;-3.00;76.00
74101;DHT22;62462;52.530;21.682;2022-12-18T06:10:54;-3.00;76.00
74101;DHT22;62462;52.530;21.682;2022-12-18T06:13:21;-3.00;75.70
74101;DHT22;62462;52.530;21.682;2022-12-18T06:15:46;-3.00;75.60
74101;DHT22;62462;52.530;21.682;2022-12-18T06:18:12;-3.00;75.70
74101;DHT22;62462;52.530;21.682;2022-12-18T06:20:38;-3.00;75.70
74101;DHT22;62462;52.530;21.682;2022-12-18T06:23:05;-3.00;75.90
74101;DHT22;62462;52.530;21.682;2022-12-18T06:25:31;-3.00;76.00
74101;DHT22;62462;52.530;21.682;2022-12-18T06:27:58;-3.00;75.90
74101;DHT22;62462;52.530;21.682;2022-12-18T06:30:24;-2.90;76.00
74101;DHT22;62462;52.530;21.682;2022-12-18T06:32:50;-2.90;75.90
74101;DHT22;62462;52.530;21.682;2022-12-18T06:35:16;-2.90;75.70
74101;DHT22;62462;52.530;21.682;2022-12-18T06:37:41;-2.80;75.60
74101;DHT22;62462;52.530;21.682;2022-12-18T06:40:08;-2.90;75.40
74101;DHT22;62462;52.530;21.682;2022-12-18T06:42:33;-2.90;75.60
74101;DHT22;62462;52.530;21.682;2022-12-18T06:44:59;-2.90;75.80
74101;DHT22;62462;52.530;21.682;2022-12-18T06:47:25;-3.00;76.00
74101;DHT22;62462;52.530;21.682;2022-12-18T06:49:51;-2.90;76.10
74101;DHT22;62462;52.530;21.682;2022-12-18T06:52:16;-2.90;76.00
74101;DHT22;62462;52.530;21.682;2022-12-18T06:54:42;-2.80;76.00
74101;DHT22;62462;52.530;21.682;2022-12-18T06:57:08;-2.80;75.40
74101;DHT22;62462;52.530;21.682;2022-12-18T06:59:33;-2.90;75.20
74101;DHT22;62462;52.530;21.682;2022-12-18T07:01:59;-3.00;75.90
74101;DHT22;62462;52.530;21.682;2022-12-18T07:04:31;-3.00;76.10
74101;DHT22;62462;52.530;21.682;2022-12-18T07:06:57;-2.90;76.20
74101;DHT22;62462;52.530;21.682;2022-12-18T07:09:23;-2.90;76.00
74101;DHT22;62462;52.530;21.682;2022-12-18T07:11:49;-2.90;75.90
74101;DHT22;62462;52.530;21.682;2022-12-18T07:14:15;-2.90;75.70
74101;DHT22;62462;52.530;21.682;2022-12-18T07:16:40;-2.90;75.80
74101;DHT22;62462;52.530;21.682;2022-12-18T07:19:06;-2.90;75.90
74101;DHT22;62462;52.530;21.682;2022-12-18T07:21:32;-2.90;75.90
74101;DHT22;62462;52.530;21.682;2022-12-18T07:23:58;-3.00;75.90
74101;DHT22;62462;52.530;21.682;2022-12-18T07:26:23;-3.00;76.30
74101;DHT22;62462;52.530;21.682;2022-12-18T07:28:50;-3.00;76.40
74101;DHT22;62462;52.530;21.682;2022-12-18T07:31:18;-3.10;76.10
74101;DHT22;62462;52.530;21.682;2022-12-18T07:33:45;-3.10;76.40
74101;DHT22;62462;52.530;21.682;2022-12-18T07:36:11;-3.00;76.50
74101;DHT22;62462;52.530;21.682;2022-12-18T07:38:37;-2.90;76.40
74101;DHT22;62462;52.530;21.682;2022-12-18T07:41:11;-2.80;76.20
74101;DHT22;62462;52.530;21.682;2022-12-18T07:43:37;-2.80;76.20
74101;DHT22;62462;52.530;21.682;2022-12-18T07:46:03;-2.70;76.10
74101;DHT22;62462;52.530;21.682;2022-12-18T07:48:29;-2.70;75.80
74101;DHT22;62462;52.530;21.682;2022-12-18T07:51:05;-2.80;74.90
74101;DHT22;62462;52.530;21.682;2022-12-18T07:53:32;-3.00;75.20
74101;DHT22;62462;52.530;21.682;2022-12-18T07:56:00;-3.00;76.20
74101;DHT22;62462;52.530;21.682;2022-12-18T07:58:26;-3.10;76.20
74101;DHT22;62462;52.530;21.682;2022-12-18T08:00:52;-3.10;76.30
74101;DHT22;62462;52.530;21.682;2022-12-18T08:03:18;-3.10;76.70
74101;DHT22;62462;52.530;21.682;2022-12-18T08:05:44;-3.10;76.80
74101;DHT22;62462;52.530;21.682;2022-12-18T08:08:10;-3.10;76.60
74101;DHT22;62462;52.530;21.682;2022-12-18T08:10:37;-3.10;76.30
74101;DHT22;62462;52.530;21.682;2022-12-18T08:13:03;-3.20;76.80
74101;DHT22;62462;52.530;21.682;2022-12-18T08:15:29;-3.20;77.30
74101;DHT22;62462;52.530;21.682;2022-12-18T08:17:57;-3.10;77.20
74101;DHT22;62462;52.530;21.682;2022-12-18T08:20:23;-3.10;76.80
74101;DHT22;62462;52.530;21.682;2022-12-18T08:22:49;-3.10;77.80
74101;DHT22;62462;52.530;21.682;2022-12-18T08:25:14;-3.00;77.10
74101;DHT22;62462;52.530;21.682;2022-12-18T08:27:40;-3.00;77.00
74101;DHT22;62462;52.530;21.682;2022-12-18T08:30:06;-2.90;76.40
74101;DHT22;62462;52.530;21.682;2022-12-18T08:32:32;-3.00;75.80
74101;DHT22;62462;52.530;21.682;2022-12-18T08:34:58;-3.00;76.50
74101;DHT22;62462;52.530;21.682;2022-12-18T08:37:24;-3.00;76.00
74101;DHT22;62462;52.530;21.682;2022-12-18T08:39:50;-3.10;77.50
74101;DHT22;62462;52.530;21.682;2022-12-18T08:42:16;-3.00;76.80
74101;DHT22;62462;52.530;21.682;2022-12-18T08:45:01;-3.20;76.50
74101;DHT22;62462;52.530;21.682;2022-12-18T08:47:27;-3.20;77.10
74101;DHT22;62462;52.530;21.682;2022-12-18T08:49:52;-3.20;77.40
74101;DHT22;62462;52.530;21.682;2022-12-18T08:52:18;-3.10;77.40
74101;DHT22;62462;52.530;21.682;2022-12-18T08:54:44;-3.00;77.30
74101;DHT22;62462;52.530;21.682;2022-12-18T08:57:09;-2.90;76.70
74101;DHT22;62462;52.530;21.682;2022-12-18T08:59:35;-2.90;76.70
74101;DHT22;62462;52.530;21.682;2022-12-18T09:02:01;-2.80;77.00
74101;DHT22;62462;52.530;21.682;2022-12-18T09:04:26;-2.80;76.40
74101;DHT22;62462;52.530;21.682;2022-12-18T09:06:55;-2.70;76.50
74101;DHT22;62462;52.530;21.682;2022-12-18T09:09:22;-2.70;76.10
74101;DHT22;62462;52.530;21.682;2022-12-18T09:11:47;-2.70;76.10
74101;DHT22;62462;52.530;21.682;2022-12-18T09:14:13;-2.70;75.80
74101;DHT22;62462;52.530;21.682;2022-12-18T09:16:39;-2.80;75.70
74101;DHT22;62462;52.530;21.682;2022-12-18T09:19:05;-2.80;76.50
74101;DHT22;62462;52.530;21.682;2022-12-18T09:21:34;-2.80;76.60
74101;DHT22;62462;52.530;21.682;2022-12-18T09:24:00;-2.70;76.70
74101;DHT22;62462;52.530;21.682;2022-12-18T09:26:26;-2.70;76.10
74101;DHT22;62462;52.530;21.682;2022-12-18T09:28:52;-2.80;75.70
74101;DHT22;62462;52.530;21.682;2022-12-18T09:31:20;-2.90;76.30
74101;DHT22;62462;52.530;21.682;2022-12-18T09:33:46;-2.90;76.30
74101;DHT22;62462;52.530;21.682;2022-12-18T09:36:14;-3.00;76.70
74101;DHT22;62462;52.530;21.682;2022-12-18T09:38:40;-3.20;76.60
74101;DHT22;62462;52.530;21.682;2022-12-18T09:43:50;-3.30;77.90
74101;DHT22;62462;52.530;21.682;2022-12-18T09:46:26;-3.20;78.30
74101;DHT22;62462;52.530;21.682;2022-12-18T09:48:54;-3.10;77.80
74101;DHT22;62462;52.530;21.682;2022-12-18T09:51:30;-3.00;77.90
74101;DHT22;62462;52.530;21.682;2022-12-18T09:54:05;-2.90;77.60
74101;DHT22;62462;52.530;21.682;2022-12-18T09:56:40;-2.80;77.40
74101;DHT22;62462;52.530;21.682;2022-12-18T09:59:05;-2.70;76.80
74101;DHT22;62462;52.530;21.682;2022-12-18T10:01:34;-2.70;76.10
74101;DHT22;62462;52.530;21.682;2022-12-18T10:04:00;-2.80;75.80
74101;DHT22;62462;52.530;21.682;2022-12-18T10:06:35;-2.90;76.60
74101;DHT22;62462;52.530;21.682;2022-12-18T10:09:13;-2.80;77.00
74101;DHT22;62462;52.530;21.682;2022-12-18T10:14:46;-2.50;76.40
74101;DHT22;62462;52.530;21.682;2022-12-18T10:17:26;-2.50;75.70
74101;DHT22;62462;52.530;21.682;2022-12-18T10:20:02;-2.50;75.50
74101;DHT22;62462;52.530;21.682;2022-12-18T10:22:43;-2.40;75.90
74101;DHT22;62462;52.530;21.682;2022-12-18T10:25:34;-2.40;75.20
74101;DHT22;62462;52.530;21.682;2022-12-18T10:28:14;-2.30;75.70
74101;DHT22;62462;52.530;21.682;2022-12-18T10:30:41;-2.30;74.70
74101;DHT22;62462;52.530;21.682;2022-12-18T10:33:13;-2.40;74.40
74101;DHT22;62462;52.530;21.682;2022-12-18T10:35:42;-2.50;74.40
74101;DHT22;62462;52.530;21.682;2022-12-18T10:40:52;-2.60;75.90
74101;DHT22;62462;52.530;21.682;2022-12-18T10:43:25;-2.60;75.50
74101;DHT22;62462;52.530;21.682;2022-12-18T10:46:32;-2.60;75.50
74101;DHT22;62462;52.530;21.682;2022-12-18T10:48:54;-2.60;75.90
74101;DHT22;62462;52.530;21.682;2022-12-18T10:51:23;-2.50;76.00
74101;DHT22;62462;52.530;21.682;2022-12-18T10:54:19;-2.50;75.40
74101;DHT22;62462;52.530;21.682;2022-12-18T10:56:46;-2.40;75.40
74101;DHT22;62462;52.530;21.682;2022-12-18T10:59:17;-2.30;75.70
74101;DHT22;62462;52.530;21.682;2022-12-18T11:01:50;-2.10;75.50
74101;DHT22;62462;52.530;21.682;2022-12-18T11:04:29;-2.00;75.00
74101;DHT22;62462;52.530;21.682;2022-12-18T11:09:26;-2.10;74.40
74101;DHT22;62462;52.530;21.682;2022-12-18T11:11:55;-2.10;74.60
74101;DHT22;62462;52.530;21.682;2022-12-18T11:16:52;-2.00;74.30
74101;DHT22;62462;52.530;21.682;2022-12-18T11:19:32;-1.90;73.70
74101;DHT22;62462;52.530;21.682;2022-12-18T11:21:58;-2.00;73.90
74101;DHT22;62462;52.530;21.682;2022-12-18T11:26:51;-1.90;73.70
74101;DHT22;62462;52.530;21.682;2022-12-18T11:29:22;-2.10;73.60
74101;DHT22;62462;52.530;21.682;2022-12-18T11:31:49;-2.20;74.20
74101;DHT22;62462;52.530;21.682;2022-12-18T11:34:27;-2.20;74.50
74101;DHT22;62462;52.530;21.682;2022-12-18T11:36:57;-2.20;74.50
74101;DHT22;62462;52.530;21.682;2022-12-18T11:39:34;-2.20;74.60
74101;DHT22;62462;52.530;21.682;2022-12-18T11:42:27;-2.20;75.00
74101;DHT22;62462;52.530;21.682;2022-12-18T11:50:17;-2.60;76.70
74101;DHT22;62462;52.530;21.682;2022-12-18T11:52:44;-2.50;76.30
74101;DHT22;62462;52.530;21.682;2022-12-18T12:06:49;-2.60;76.40
74101;DHT22;62462;52.530;21.682;2022-12-18T12:09:25;-2.60;76.50
74101;DHT22;62462;52.530;21.682;2022-12-18T12:16:57;-2.50;76.40
74101;DHT22;62462;52.530;21.682;2022-12-18T12:27:37;-2.40;76.30
74101;DHT22;62462;52.530;21.682;2022-12-18T12:30:24;-2.40;76.10
74101;DHT22;62462;52.530;21.682;2022-12-18T12:36:17;-2.40;76.20
74101;DHT22;62462;52.530;21.682;2022-12-18T12:38:51;-2.50;76.30
74101;DHT22;62462;52.530;21.682;2022-12-18T12:41:25;-2.50;76.40
74101;DHT22;62462;52.530;21.682;2022-12-18T12:44:17;-2.50;76.40
74101;DHT22;62462;52.530;21.682;2022-12-18T12:46:45;-2.50;76.20
74101;DHT22;62462;52.530;21.682;2022-12-18T12:49:18;-2.60;76.20
74101;DHT22;62462;52.530;21.682;2022-12-18T12:52:07;-2.60;77.00
74101;DHT22;62462;52.530;21.682;2022-12-18T12:54:36;-2.70;77.40
74101;DHT22;62462;52.530;21.682;2022-12-18T12:57:13;-2.60;77.30
74101;DHT22;62462;52.530;21.682;2022-12-18T12:59:51;-2.60;77.30
74101;DHT22;62462;52.530;21.682;2022-12-18T13:02:36;-2.70;77.60
74101;DHT22;62462;52.530;21.682;2022-12-18T13:07:51;-2.40;77.20
74101;DHT22;62462;52.530;21.682;2022-12-18T13:15:47;-2.40;76.70
74101;DHT22;62462;52.530;21.682;2022-12-18T13:18:22;-2.30;76.80
74101;DHT22;62462;52.530;21.682;2022-12-18T13:25:49;-2.60;77.10
74101;DHT22;62462;52.530;21.682;2022-12-18T13:28:50;-2.80;78.00
74101;DHT22;62462;52.530;21.682;2022-12-18T13:31:03;-2.90;78.60
74101;DHT22;62462;52.530;21.682;2022-12-18T13:36:10;-2.80;78.20
74101;DHT22;62462;52.530;21.682;2022-12-18T13:38:38;-2.70;78.20
74101;DHT22;62462;52.530;21.682;2022-12-18T13:43:49;-2.90;78.90
74101;DHT22;62462;52.530;21.682;2022-12-18T13:46:45;-3.00;79.40
74101;DHT22;62462;52.530;21.682;2022-12-18T13:51:48;-3.00;80.00
74101;DHT22;62462;52.530;21.682;2022-12-18T13:54:34;-2.90;79.90
74101;DHT22;62462;52.530;21.682;2022-12-18T13:57:01;-2.80;79.30
74101;DHT22;62462;52.530;21.682;2022-12-18T13:59:35;-2.70;79.20
74101;DHT22;62462;52.530;21.682;2022-12-18T14:02:13;-2.70;79.00
74101;DHT22;62462;52.530;21.682;2022-12-18T14:04:40;-2.70;79.00
74101;DHT22;62462;52.530;21.682;2022-12-18T14:07:26;-2.70;79.00
74101;DHT22;62462;52.530;21.682;2022-12-18T14:09:55;-2.80;79.30
74101;DHT22;62462;52.530;21.682;2022-12-18T14:12:32;-2.80;79.70
74101;DHT22;62462;52.530;21.682;2022-12-18T14:20:46;-3.00;81.00
74101;DHT22;62462;52.530;21.682;2022-12-18T14:23:40;-3.10;81.40
74101;DHT22;62462;52.530;21.682;2022-12-18T14:26:28;-3.20;82.00
74101;DHT22;62462;52.530;21.682;2022-12-18T14:28:59;-3.30;82.90
74101;DHT22;62462;52.530;21.682;2022-12-18T14:31:30;-3.30;83.40
74101;DHT22;62462;52.530;21.682;2022-12-18T14:33:56;-3.20;83.20
74101;DHT22;62462;52.530;21.682;2022-12-18T14:36:24;-3.00;83.10
74101;DHT22;62462;52.530;21.682;2022-12-18T14:38:52;-3.00;82.70
74101;DHT22;62462;52.530;21.682;2022-12-18T14:41:20;-2.90;82.60
74101;DHT22;62462;52.530;21.682;2022-12-18T14:43:53;-2.80;82.10
74101;DHT22;62462;52.530;21.682;2022-12-18T14:46:38;-2.70;81.70
74101;DHT22;62462;52.530;21.682;2022-12-18T14:51:52;-2.70;81.40
74101;DHT22;62462;52.530;21.682;2022-12-18T14:54:20;-2.60;81.20
74101;DHT22;62462;52.530;21.682;2022-12-18T14:57:03;-2.60;81.20
74101;DHT22;62462;52.530;21.682;2022-12-18T14:59:30;-2.60;81.30
74101;DHT22;62462;52.530;21.682;2022-12-18T15:02:10;-2.60;81.30
74101;DHT22;62462;52.530;21.682;2022-12-18T15:04:40;-2.60;81.70
74101;DHT22;62462;52.530;21.682;2022-12-18T15:07:17;-2.70;82.00
74101;DHT22;62462;52.530;21.682;2022-12-18T15:10:16;-2.60;82.10
74101;DHT22;62462;52.530;21.682;2022-12-18T15:12:50;-2.60;82.00
74101;DHT22;62462;52.530;21.682;2022-12-18T15:20:46;-2.60;81.90
74101;DHT22;62462;52.530;21.682;2022-12-18T15:26:08;-2.60;81.90
74101;DHT22;62462;52.530;21.682;2022-12-18T15:28:55;-2.60;82.20
74101;DHT22;62462;52.530;21.682;2022-12-18T15:36:20;-2.60;82.40
74101;DHT22;62462;52.530;21.682;2022-12-18T15:38:47;-2.60;82.60
74101;DHT22;62462;52.530;21.682;2022-12-18T15:41:14;-2.60;82.90
74101;DHT22;62462;52.530;21.682;2022-12-18T15:43:40;-2.70;83.00
74101;DHT22;62462;52.530;21.682;2022-12-18T15:46:27;-2.70;83.40
74101;DHT22;62462;52.530;21.682;2022-12-18T15:48:57;-2.80;83.60
74101;DHT22;62462;52.530;21.682;2022-12-18T15:51:26;-2.80;83.80
74101;DHT22;62462;52.530;21.682;2022-12-18T15:53:56;-2.80;83.90
74101;DHT22;62462;52.530;21.682;2022-12-18T15:56:22;-2.70;83.90
74101;DHT22;62462;52.530;21.682;2022-12-18T15:59:12;-2.70;83.70
74101;DHT22;62462;52.530;21.682;2022-12-18T16:01:39;-2.80;83.90
74101;DHT22;62462;52.530;21.682;2022-12-18T16:04:05;-2.80;84.20
74101;DHT22;62462;52.530;21.682;2022-12-18T16:06:31;-2.80;84.20
74101;DHT22;62462;52.530;21.682;2022-12-18T16:08:57;-2.80;84.30
74101;DHT22;62462;52.530;21.682;2022-12-18T16:11:27;-2.80;84.10
74101;DHT22;62462;52.530;21.682;2022-12-18T16:16:37;-2.80;84.40
74101;DHT22;62462;52.530;21.682;2022-12-18T16:19:03;-2.80;84.40
74101;DHT22;62462;52.530;21.682;2022-12-18T16:21:28;-2.80;84.20
74101;DHT22;62462;52.530;21.682;2022-12-18T16:23:54;-2.80;84.20
74101;DHT22;62462;52.530;21.682;2022-12-18T16:26:20;-2.70;84.00
74101;DHT22;62462;52.530;21.682;2022-12-18T16:28:45;-2.70;83.60
74101;DHT22;62462;52.530;21.682;2022-12-18T16:31:11;-2.80;83.70
74101;DHT22;62462;52.530;21.682;2022-12-18T16:33:37;-2.90;84.20
74101;DHT22;62462;52.530;21.682;2022-12-18T16:36:03;-2.90;84.70
74101;DHT22;62462;52.530;21.682;2022-12-18T16:38:28;-2.80;84.70
74101;DHT22;62462;52.530;21.682;2022-12-18T16:40:54;-2.70;84.40
74101;DHT22;62462;52.530;21.682;2022-12-18T16:43:38;-2.60;83.80
74101;DHT22;62462;52.530;21.682;2022-12-18T16:46:04;-2.60;83.80
74101;DHT22;62462;52.530;21.682;2022-12-18T16:48:29;-2.50;83.70
74101;DHT22;62462;52.530;21.682;2022-12-18T16:51:02;-2.50;83.10
74101;DHT22;62462;52.530;21.682;2022-12-18T16:53:29;-2.50;82.90
74101;DHT22;62462;52.530;21.682;2022-12-18T16:55:55;-2.50;83.20
74101;DHT22;62462;52.530;21.682;2022-12-18T16:58:21;-2.50;83.10
74101;DHT22;62462;52.530;21.682;2022-12-18T17:00:47;-2.50;83.00
74101;DHT22;62462;52.530;21.682;2022-12-18T17:03:13;-2.40;82.90
74101;DHT22;62462;52.530;21.682;2022-12-18T17:05:38;-2.30;82.60
74101;DHT22;62462;52.530;21.682;2022-12-18T17:08:04;-2.20;82.00
74101;DHT22;62462;52.530;21.682;2022-12-18T17:10:30;-2.20;81.90
74101;DHT22;62462;52.530;21.682;2022-12-18T17:12:56;-2.30;81.90
74101;DHT22;62462;52.530;21.682;2022-12-18T17:15:21;-2.20;82.00
74101;DHT22;62462;52.530;21.682;2022-12-18T17:17:47;-2.20;81.90
74101;DHT22;62462;52.530;21.682;2022-12-18T17:20:13;-2.20;82.00
74101;DHT22;62462;52.530;21.682;2022-12-18T17:22:39;-2.20;81.80
74101;DHT22;62462;52.530;21.682;2022-12-18T17:25:05;-2.10;81.80
74101;DHT22;62462;52.530;21.682;2022-12-18T17:27:30;-2.20;81.40
74101;DHT22;62462;52.530;21.682;2022-12-18T17:29:56;-2.20;81.50
74101;DHT22;62462;52.530;21.682;2022-12-18T17:32:22;-2.20;81.50